createdAt,value
2018-09-16T00:00:08.596Z,0.00
2018-09-16T00:01:08.624Z,0.00
2018-09-16T00:02:08.653Z,0.00
2018-09-16T00:03:08.681Z,0.00
2018-09-16T00:04:08.711Z,0.00
2018-09-16T00:05:08.734Z,0.00
2018-09-16T00:06:08.764Z,0.00
2018-09-16T00:07:08.795Z,0.00
2018-09-16T00:08:08.817Z,0.00
2018-09-16T00:09:08.844Z,0.00
2018-09-16T00:10:08.875Z,0.00
2018-09-16T00:11:08.902Z,0.00
2018-09-16T00:12:08.929Z,0.00
2018-09-16T00:13:08.958Z,0.00
2018-09-16T00:14:08.986Z,0.00
2018-09-16T00:15:09.013Z,0.00
2018-09-16T00:16:09.037Z,0.00
2018-09-16T00:17:09.068Z,0.00
2018-09-16T00:18:09.092Z,0.00
2018-09-16T00:19:09.123Z,0.00
2018-09-16T00:20:09.148Z,0.00
2018-09-16T00:21:09.176Z,0.00
2018-09-16T00:22:09.209Z,0.00
2018-09-16T00:23:09.234Z,0.00
2018-09-16T00:24:09.259Z,0.00
2018-09-16T00:25:09.287Z,0.00
2018-09-16T00:26:09.316Z,0.00
2018-09-16T00:27:09.351Z,0.00
2018-09-16T00:28:09.372Z,0.00
2018-09-16T00:29:09.400Z,0.00
2018-09-16T00:30:09.427Z,0.00
2018-09-16T00:31:09.455Z,0.00
2018-09-16T00:32:09.479Z,0.00
2018-09-16T00:33:09.509Z,0.00
2018-09-16T00:34:09.536Z,0.00
2018-09-16T00:35:09.565Z,0.00
2018-09-16T00:36:09.590Z,0.00
2018-09-16T00:37:09.619Z,0.00
2018-09-16T00:38:09.647Z,0.00
2018-09-16T00:39:09.672Z,0.00
2018-09-16T00:40:09.702Z,0.00
2018-09-16T00:41:09.728Z,0.00
2018-09-16T00:42:09.758Z,0.00
2018-09-16T00:43:09.785Z,0.00
2018-09-16T00:44:09.812Z,0.00
2018-09-16T00:45:09.837Z,0.00
2018-09-16T00:46:09.870Z,0.00
2018-09-16T00:47:09.895Z,0.00
2018-09-16T00:48:09.920Z,0.00
2018-09-16T00:49:09.952Z,0.00
2018-09-16T00:50:09.980Z,0.00
2018-09-16T00:51:10.006Z,0.00
2018-09-16T00:52:10.032Z,0.00
2018-09-16T00:53:10.060Z,0.00
2018-09-16T00:54:10.090Z,0.00
2018-09-16T00:55:10.117Z,0.00
2018-09-16T00:56:10.139Z,0.00
2018-09-16T00:57:10.167Z,0.00
2018-09-16T00:58:10.199Z,0.00
2018-09-16T00:59:10.225Z,0.00
2018-09-16T01:00:10.252Z,0.00
2018-09-16T01:01:10.276Z,0.00
2018-09-16T01:02:10.307Z,0.00
2018-09-16T01:03:10.335Z,0.00
2018-09-16T01:04:10.366Z,0.00
2018-09-16T01:05:10.389Z,0.00
2018-09-16T01:06:10.415Z,0.00
2018-09-16T01:07:10.444Z,0.00
2018-09-16T01:08:10.476Z,0.00
2018-09-16T01:09:10.701Z,0.00
2018-09-16T01:10:10.523Z,0.00
2018-09-16T01:11:10.554Z,0.00
2018-09-16T01:12:10.578Z,0.00
2018-09-16T01:13:10.613Z,0.00
2018-09-16T01:14:10.636Z,0.00
2018-09-16T01:15:10.664Z,0.00
2018-09-16T01:16:10.691Z,0.00
2018-09-16T01:17:10.718Z,0.00
2018-09-16T01:18:10.745Z,0.00
2018-09-16T01:19:10.771Z,0.00
2018-09-16T01:20:10.797Z,0.00
2018-09-16T01:21:10.825Z,0.00
2018-09-16T01:22:10.851Z,0.00
2018-09-16T01:23:10.880Z,0.00
2018-09-16T01:24:10.908Z,0.00
2018-09-16T01:25:10.939Z,0.00
2018-09-16T01:26:10.968Z,0.00
2018-09-16T01:27:10.992Z,0.00
2018-09-16T01:28:11.019Z,0.00
2018-09-16T01:29:11.044Z,0.00
2018-09-16T01:30:11.071Z,0.00
2018-09-16T01:31:11.101Z,0.00
2018-09-16T01:32:11.126Z,0.00
2018-09-16T01:33:11.154Z,0.00
2018-09-16T01:34:11.180Z,0.00
2018-09-16T01:35:11.210Z,0.00
2018-09-16T01:36:11.235Z,0.00
2018-09-16T01:37:11.262Z,0.00
2018-09-16T01:38:11.289Z,0.00
2018-09-16T01:39:11.317Z,0.00
2018-09-16T01:40:11.344Z,0.00
2018-09-16T01:41:11.371Z,0.00
2018-09-16T01:42:11.402Z,0.00
2018-09-16T01:43:11.430Z,0.00
2018-09-16T01:44:11.456Z,0.00
2018-09-16T01:45:11.483Z,0.00
2018-09-16T01:46:11.511Z,0.00
2018-09-16T01:47:11.539Z,0.00
2018-09-16T01:48:11.565Z,0.00
2018-09-16T01:49:11.589Z,0.00
2018-09-16T01:50:11.618Z,0.00
2018-09-16T01:51:11.648Z,0.00
2018-09-16T01:52:11.674Z,0.00
2018-09-16T01:53:11.699Z,0.00
2018-09-16T01:54:11.729Z,0.00
2018-09-16T01:55:11.756Z,0.00
2018-09-16T01:56:11.783Z,0.00
2018-09-16T01:57:11.807Z,0.00
2018-09-16T01:58:11.838Z,0.00
2018-09-16T01:59:11.866Z,0.00
2018-09-16T02:00:11.890Z,0.00
2018-09-16T02:01:11.919Z,0.00
2018-09-16T02:02:54.494Z,0.00
2018-09-16T02:03:54.521Z,0.00
2018-09-16T02:04:54.552Z,0.00
2018-09-16T02:05:54.576Z,0.00
2018-09-16T02:06:54.603Z,0.00
2018-09-16T02:07:54.634Z,0.00
2018-09-16T02:09:37.206Z,0.00
2018-09-16T02:10:37.233Z,0.00
2018-09-16T02:11:37.267Z,0.00
2018-09-16T02:12:37.291Z,0.00
2018-09-16T02:13:37.315Z,0.00
2018-09-16T02:14:37.345Z,0.00
2018-09-16T02:15:37.373Z,0.00
2018-09-16T02:16:37.399Z,0.00
2018-09-16T02:17:37.424Z,0.00
2018-09-16T02:18:37.453Z,0.00
2018-09-16T02:19:37.498Z,0.00
2018-09-16T02:20:37.506Z,0.00
2018-09-16T02:21:37.532Z,0.00
2018-09-16T02:22:37.566Z,0.00
2018-09-16T02:23:37.588Z,0.00
2018-09-16T02:24:37.614Z,0.00
2018-09-16T02:25:37.643Z,0.00
2018-09-16T02:26:37.672Z,0.00
2018-09-16T02:27:37.696Z,0.00
2018-09-16T02:28:37.721Z,0.00
2018-09-16T02:29:37.750Z,0.00
2018-09-16T02:30:37.776Z,0.00
2018-09-16T02:31:37.808Z,0.00
2018-09-16T02:32:37.832Z,0.00
2018-09-16T02:33:37.857Z,0.00
2018-09-16T02:34:37.885Z,0.00
2018-09-16T02:35:37.910Z,0.00
2018-09-16T02:36:37.935Z,0.00
2018-09-16T02:37:40.988Z,0.00
2018-09-16T02:38:37.990Z,0.00
2018-09-16T02:39:38.016Z,0.00
2018-09-16T02:40:38.045Z,0.00
2018-09-16T02:41:38.070Z,0.00
2018-09-16T02:42:38.098Z,0.00
2018-09-16T02:43:38.124Z,0.00
2018-09-16T02:44:38.154Z,0.00
2018-09-16T02:45:38.176Z,0.00
2018-09-16T02:46:38.205Z,0.00
2018-09-16T02:47:38.230Z,0.00
2018-09-16T02:48:38.270Z,0.00
2018-09-16T02:49:41.924Z,0.00
2018-09-16T02:50:38.311Z,0.00
2018-09-16T02:51:38.336Z,0.00
2018-09-16T02:52:38.360Z,0.00
2018-09-16T02:53:38.391Z,0.00
2018-09-16T02:54:38.418Z,0.00
2018-09-16T02:55:38.452Z,0.00
2018-09-16T02:56:39.480Z,0.00
2018-09-16T02:57:38.497Z,0.00
2018-09-16T02:58:38.523Z,0.00
2018-09-16T02:59:38.552Z,0.00
2018-09-16T03:00:38.592Z,0.00
2018-09-16T03:01:38.604Z,0.00
2018-09-16T03:02:38.639Z,0.00
2018-09-16T03:03:38.663Z,0.00
2018-09-16T03:04:38.682Z,0.00
2018-09-16T03:05:38.709Z,0.00
2018-09-16T03:06:38.740Z,0.00
2018-09-16T03:07:38.763Z,0.00
2018-09-16T03:08:38.788Z,0.00
2018-09-16T03:09:38.819Z,0.00
2018-09-16T03:10:38.843Z,0.00
2018-09-16T03:11:38.957Z,0.00
2018-09-16T03:12:38.897Z,0.00
2018-09-16T03:13:38.925Z,0.00
2018-09-16T03:14:38.949Z,0.00
2018-09-16T03:15:38.979Z,0.00
2018-09-16T03:16:39.032Z,0.00
2018-09-16T03:17:39.031Z,0.00
2018-09-16T03:18:39.068Z,0.00
2018-09-16T03:19:39.091Z,0.00
2018-09-16T03:20:39.113Z,0.00
2018-09-16T03:21:39.136Z,0.00
2018-09-16T03:22:39.167Z,0.00
2018-09-16T03:23:39.192Z,0.00
2018-09-16T03:24:39.226Z,0.00
2018-09-16T03:25:39.247Z,0.00
2018-09-16T03:26:39.275Z,0.00
2018-09-16T03:27:39.302Z,0.00
2018-09-16T03:28:39.324Z,0.00
2018-09-16T03:29:39.358Z,0.00
2018-09-16T03:30:39.382Z,0.00
2018-09-16T03:31:39.408Z,0.00
2018-09-16T03:32:39.433Z,0.00
2018-09-16T03:33:39.461Z,0.00
2018-09-16T03:34:39.502Z,0.00
2018-09-16T03:35:39.512Z,0.00
2018-09-16T03:36:39.541Z,0.00
2018-09-16T03:37:39.566Z,0.00
2018-09-16T03:38:39.595Z,0.00
2018-09-16T03:39:39.622Z,0.00
2018-09-16T03:40:39.649Z,0.00
2018-09-16T03:41:39.674Z,0.00
2018-09-16T03:42:39.700Z,0.00
2018-09-16T03:43:39.727Z,0.00
2018-09-16T03:44:39.753Z,0.00
2018-09-16T03:45:39.779Z,0.00
2018-09-16T03:46:39.828Z,0.00
2018-09-16T03:47:39.834Z,0.00
2018-09-16T03:48:39.860Z,0.00
2018-09-16T03:49:39.887Z,0.00
2018-09-16T03:50:39.983Z,0.00
2018-09-16T03:51:39.940Z,0.00
2018-09-16T03:52:39.968Z,0.00
2018-09-16T03:53:39.997Z,0.00
2018-09-16T03:54:40.021Z,0.00
2018-09-16T03:55:40.047Z,0.00
2018-09-16T03:56:40.073Z,0.00
2018-09-16T03:57:40.101Z,0.00
2018-09-16T03:58:40.128Z,0.00
2018-09-16T03:59:40.187Z,0.00
2018-09-16T04:00:40.182Z,0.00
2018-09-16T04:01:40.213Z,0.00
2018-09-16T04:02:40.243Z,0.00
2018-09-16T04:03:40.262Z,0.00
2018-09-16T04:04:40.290Z,0.00
2018-09-16T04:05:40.319Z,0.00
2018-09-16T04:06:40.345Z,0.00
2018-09-16T04:07:40.373Z,0.00
2018-09-16T04:08:40.398Z,0.00
2018-09-16T04:09:40.422Z,0.00
2018-09-16T04:10:40.453Z,0.00
2018-09-16T04:11:40.475Z,0.00
2018-09-16T04:12:40.503Z,0.00
2018-09-16T04:13:40.537Z,0.00
2018-09-16T04:14:40.557Z,0.00
2018-09-16T04:15:40.581Z,0.00
2018-09-16T04:16:40.613Z,0.00
2018-09-16T04:17:40.633Z,0.00
2018-09-16T04:18:40.664Z,0.00
2018-09-16T04:19:40.689Z,0.00
2018-09-16T04:20:40.714Z,0.00
2018-09-16T04:21:40.744Z,0.00
2018-09-16T04:22:40.768Z,0.00
2018-09-16T04:23:40.795Z,0.00
2018-09-16T04:24:40.829Z,0.00
2018-09-16T04:25:40.851Z,0.00
2018-09-16T04:26:40.875Z,0.00
2018-09-16T04:27:40.905Z,0.00
2018-09-16T04:28:40.928Z,0.00
2018-09-16T04:29:40.956Z,0.00
2018-09-16T04:30:40.981Z,0.00
2018-09-16T04:31:41.007Z,0.00
2018-09-16T04:32:41.037Z,0.00
2018-09-16T04:33:41.061Z,0.00
2018-09-16T04:34:41.090Z,0.00
2018-09-16T04:35:41.117Z,0.00
2018-09-16T04:36:41.140Z,0.00
2018-09-16T04:37:41.166Z,0.00
2018-09-16T04:38:41.195Z,0.00
2018-09-16T04:39:41.223Z,0.00
2018-09-16T04:40:41.249Z,0.00
2018-09-16T04:41:41.272Z,0.00
2018-09-16T04:42:41.298Z,0.00
2018-09-16T04:43:41.326Z,0.00
2018-09-16T04:44:41.354Z,0.00
2018-09-16T04:45:41.380Z,0.00
2018-09-16T04:46:41.407Z,0.00
2018-09-16T04:47:41.434Z,0.00
2018-09-16T04:48:41.460Z,0.00
2018-09-16T04:49:41.496Z,0.00
2018-09-16T04:50:41.511Z,0.00
2018-09-16T04:51:41.537Z,0.00
2018-09-16T04:52:41.564Z,0.00
2018-09-16T04:53:41.591Z,0.00
2018-09-16T04:54:41.616Z,0.00
2018-09-16T04:55:41.642Z,0.00
2018-09-16T04:56:41.667Z,0.00
2018-09-16T04:57:41.695Z,0.00
2018-09-16T04:58:41.721Z,0.00
2018-09-16T04:59:41.751Z,0.00
2018-09-16T05:00:41.776Z,0.00
2018-09-16T05:01:41.803Z,0.00
2018-09-16T05:02:41.834Z,5.63
2018-09-16T05:03:41.857Z,5.63
2018-09-16T05:04:41.881Z,5.63
2018-09-16T05:05:41.913Z,5.63
2018-09-16T05:06:41.945Z,5.63
2018-09-16T05:07:41.960Z,5.63
2018-09-16T05:08:41.989Z,5.63
2018-09-16T05:09:42.015Z,5.63
2018-09-16T05:10:42.039Z,11.25
2018-09-16T05:11:42.065Z,11.25
2018-09-16T05:12:42.092Z,11.25
2018-09-16T05:13:42.121Z,11.25
2018-09-16T05:14:42.152Z,11.25
2018-09-16T05:15:42.174Z,11.25
2018-09-16T05:16:42.195Z,16.88
2018-09-16T05:17:42.222Z,16.88
2018-09-16T05:18:42.252Z,16.88
2018-09-16T05:19:42.275Z,22.50
2018-09-16T05:20:42.302Z,22.50
2018-09-16T05:21:42.332Z,22.50
2018-09-16T05:22:42.457Z,28.13
2018-09-16T05:23:42.384Z,28.13
2018-09-16T05:24:42.409Z,28.13
2018-09-16T05:25:42.434Z,33.75
2018-09-16T05:26:42.464Z,33.75
2018-09-16T05:27:42.490Z,33.75
2018-09-16T05:28:42.516Z,39.38
2018-09-16T05:29:42.543Z,45.00
2018-09-16T05:30:42.566Z,45.00
2018-09-16T05:31:42.596Z,45.00
2018-09-16T05:32:42.618Z,50.63
2018-09-16T05:33:42.648Z,50.63
2018-09-16T05:34:42.674Z,56.25
2018-09-16T05:35:42.699Z,56.25
2018-09-16T05:36:42.724Z,61.88
2018-09-16T05:37:42.793Z,61.88
2018-09-16T05:38:42.779Z,61.88
2018-09-16T05:39:42.804Z,61.88
2018-09-16T05:40:42.830Z,61.88
2018-09-16T05:41:42.862Z,67.50
2018-09-16T05:42:42.883Z,67.50
2018-09-16T05:43:42.914Z,67.50
2018-09-16T05:44:42.938Z,67.50
2018-09-16T05:45:42.962Z,73.13
2018-09-16T05:46:42.993Z,73.13
2018-09-16T05:47:43.017Z,73.13
2018-09-16T05:48:43.047Z,78.75
2018-09-16T05:49:43.071Z,78.75
2018-09-16T05:50:43.097Z,78.75
2018-09-16T05:52:25.672Z,84.38
2018-09-16T05:53:25.864Z,84.38
2018-09-16T05:54:25.728Z,84.38
2018-09-16T05:55:25.755Z,90.00
2018-09-16T05:56:25.777Z,90.00
2018-09-16T05:57:25.810Z,90.00
2018-09-16T05:58:25.834Z,95.63
2018-09-16T05:59:26.011Z,95.63
2018-09-16T06:00:25.884Z,95.63
2018-09-16T06:01:25.911Z,101.25
2018-09-16T06:02:25.943Z,101.25
2018-09-16T06:03:25.962Z,101.25
2018-09-16T06:04:25.993Z,101.25
2018-09-16T06:05:26.019Z,101.25
2018-09-16T06:06:26.044Z,106.88
2018-09-16T06:07:26.070Z,106.88
2018-09-16T06:08:26.099Z,112.50
2018-09-16T06:09:26.123Z,112.50
2018-09-16T06:10:26.154Z,112.50
2018-09-16T06:11:26.175Z,118.13
2018-09-16T06:12:26.202Z,123.75
2018-09-16T06:13:26.229Z,129.38
2018-09-16T06:14:26.258Z,174.38
2018-09-16T06:15:26.285Z,382.50
2018-09-16T06:16:26.311Z,483.75
2018-09-16T06:17:26.338Z,489.38
2018-09-16T06:18:26.363Z,489.38
2018-09-16T06:19:26.389Z,405.00
2018-09-16T06:20:26.417Z,365.63
2018-09-16T06:21:26.442Z,337.50
2018-09-16T06:22:26.474Z,331.88
2018-09-16T06:23:26.496Z,303.75
2018-09-16T06:24:26.526Z,309.38
2018-09-16T06:25:26.554Z,275.63
2018-09-16T06:26:26.577Z,236.25
2018-09-16T06:27:26.607Z,286.88
2018-09-16T06:28:26.632Z,292.50
2018-09-16T06:29:26.662Z,275.63
2018-09-16T06:30:26.688Z,354.38
2018-09-16T06:31:26.716Z,331.88
2018-09-16T06:32:26.742Z,320.63
2018-09-16T06:33:26.774Z,315.00
2018-09-16T06:34:26.798Z,281.25
2018-09-16T06:35:26.824Z,247.50
2018-09-16T06:36:26.855Z,270.00
2018-09-16T06:37:26.885Z,303.75
2018-09-16T06:38:26.910Z,354.38
2018-09-16T06:39:26.936Z,303.75
2018-09-16T06:40:26.965Z,281.25
2018-09-16T06:41:27.715Z,303.75
2018-09-16T06:42:27.034Z,331.88
2018-09-16T06:43:27.055Z,315.00
2018-09-16T06:44:27.075Z,365.63
2018-09-16T06:45:27.102Z,399.38
2018-09-16T06:46:27.131Z,466.88
2018-09-16T06:47:27.157Z,472.50
2018-09-16T06:48:27.185Z,450.00
2018-09-16T06:49:27.217Z,506.25
2018-09-16T06:50:27.244Z,624.38
2018-09-16T06:51:27.272Z,978.75
2018-09-16T06:52:27.303Z,1158.75
2018-09-16T06:53:27.330Z,1203.75
2018-09-16T06:54:27.406Z,1243.13
2018-09-16T06:55:27.387Z,1248.75
2018-09-16T06:56:27.420Z,1350.00
2018-09-16T06:57:27.446Z,1310.63
2018-09-16T06:58:27.480Z,1231.88
2018-09-16T06:59:27.510Z,1237.50
2018-09-16T07:00:27.537Z,1260.00
2018-09-16T07:01:27.565Z,1350.00
2018-09-16T07:02:27.597Z,1361.25
2018-09-16T07:03:27.627Z,1434.38
2018-09-16T07:04:27.655Z,1411.88
2018-09-16T07:05:27.688Z,1451.25
2018-09-16T07:06:27.721Z,1440.00
2018-09-16T07:07:27.748Z,1440.00
2018-09-16T07:08:27.850Z,1440.00
2018-09-16T07:09:27.818Z,1445.63
2018-09-16T07:10:27.843Z,1276.88
2018-09-16T07:11:27.872Z,1276.88
2018-09-16T07:12:27.903Z,821.25
2018-09-16T07:13:27.935Z,320.63
2018-09-16T07:14:28.015Z,230.63
2018-09-16T07:15:27.997Z,225.00
2018-09-16T07:16:28.028Z,225.00
2018-09-16T07:17:28.076Z,219.38
2018-09-16T07:18:28.088Z,219.38
2018-09-16T07:19:28.122Z,213.75
2018-09-16T07:20:28.153Z,213.75
2018-09-16T07:21:28.184Z,219.38
2018-09-16T07:22:28.217Z,230.63
2018-09-16T07:23:28.245Z,416.25
2018-09-16T07:24:28.274Z,810.00
2018-09-16T07:25:28.304Z,1333.13
2018-09-16T07:26:28.336Z,1411.88
2018-09-16T07:27:28.375Z,1552.50
2018-09-16T07:28:28.402Z,1591.88
2018-09-16T07:29:28.427Z,1693.13
2018-09-16T07:30:28.454Z,1665.00
2018-09-16T07:31:28.484Z,1614.38
2018-09-16T07:32:28.519Z,1653.75
2018-09-16T07:33:28.549Z,1693.13
2018-09-16T07:34:28.578Z,1676.25
2018-09-16T07:35:28.610Z,1665.00
2018-09-16T07:36:28.641Z,1693.13
2018-09-16T07:37:28.671Z,1676.25
2018-09-16T07:38:28.703Z,1670.63
2018-09-16T07:39:28.733Z,1620.00
2018-09-16T07:40:28.766Z,1563.75
2018-09-16T07:41:28.797Z,1636.88
2018-09-16T07:42:28.831Z,1665.00
2018-09-16T07:43:28.861Z,1648.13
2018-09-16T07:44:28.893Z,1530.00
2018-09-16T07:45:28.928Z,1530.00
2018-09-16T07:46:28.961Z,1575.00
2018-09-16T07:47:29.046Z,1586.25
2018-09-16T07:48:29.027Z,1659.38
2018-09-16T07:49:29.059Z,1710.00
2018-09-16T07:50:29.094Z,1665.00
2018-09-16T07:51:29.124Z,1693.13
2018-09-16T07:52:29.157Z,1659.38
2018-09-16T07:53:29.192Z,1575.00
2018-09-16T07:54:29.224Z,1513.13
2018-09-16T07:55:29.257Z,1586.25
2018-09-16T07:56:29.293Z,1659.38
2018-09-16T07:57:29.326Z,1704.38
2018-09-16T07:58:29.358Z,1552.50
2018-09-16T07:59:29.393Z,1580.63
2018-09-16T08:00:29.432Z,1485.00
2018-09-16T08:01:29.463Z,1665.00
2018-09-16T08:02:29.496Z,1811.25
2018-09-16T08:03:29.528Z,1788.75
2018-09-16T08:04:29.567Z,1743.75
2018-09-16T08:05:29.651Z,1704.38
2018-09-16T08:06:29.634Z,1704.38
2018-09-16T08:07:29.682Z,1665.00
2018-09-16T08:08:29.706Z,1648.13
2018-09-16T08:09:29.738Z,1659.38
2018-09-16T08:10:29.775Z,1811.25
2018-09-16T08:11:29.807Z,1693.13
2018-09-16T08:12:29.847Z,1794.38
2018-09-16T08:13:29.877Z,1698.75
2018-09-16T08:14:29.913Z,1800.00
2018-09-16T08:15:29.948Z,1755.00
2018-09-16T08:16:29.983Z,1766.25
2018-09-16T08:17:30.021Z,1681.88
2018-09-16T08:18:30.057Z,1676.25
2018-09-16T08:19:30.094Z,1636.88
2018-09-16T08:20:30.126Z,1665.00
2018-09-16T08:21:30.161Z,1552.50
2018-09-16T08:22:30.200Z,1440.00
2018-09-16T08:23:30.235Z,1485.00
2018-09-16T08:24:30.267Z,1440.00
2018-09-16T08:25:30.304Z,1530.00
2018-09-16T08:26:30.340Z,1648.13
2018-09-16T08:27:30.377Z,1794.38
2018-09-16T08:28:30.465Z,1665.00
2018-09-16T08:29:30.450Z,1732.50
2018-09-16T08:30:30.486Z,1738.13
2018-09-16T08:31:30.524Z,1586.25
2018-09-16T08:32:30.555Z,1738.13
2018-09-16T08:33:30.591Z,1732.50
2018-09-16T08:34:30.630Z,1777.50
2018-09-16T08:35:30.664Z,1755.00
2018-09-16T08:36:30.700Z,1670.63
2018-09-16T08:37:30.734Z,1805.63
2018-09-16T08:38:30.784Z,1794.38
2018-09-16T08:39:30.807Z,1710.00
2018-09-16T08:40:30.843Z,1665.00
2018-09-16T08:41:30.882Z,1721.25
2018-09-16T08:42:30.918Z,1265.63
2018-09-16T08:43:30.954Z,956.25
2018-09-16T08:44:30.987Z,1001.25
2018-09-16T08:45:31.044Z,1113.75
2018-09-16T08:46:31.062Z,922.50
2018-09-16T08:47:31.095Z,770.63
2018-09-16T08:48:31.135Z,618.75
2018-09-16T08:49:31.169Z,624.38
2018-09-16T08:50:31.203Z,776.25
2018-09-16T08:51:31.241Z,776.25
2018-09-16T08:52:31.276Z,618.75
2018-09-16T08:53:31.310Z,635.63
2018-09-16T08:54:31.345Z,900.00
2018-09-16T08:55:31.380Z,1355.63
2018-09-16T08:56:31.417Z,1676.25
2018-09-16T08:57:31.450Z,1901.25
2018-09-16T08:58:31.620Z,1895.63
2018-09-16T08:59:31.517Z,1653.75
2018-09-16T09:00:31.554Z,1710.00
2018-09-16T09:01:31.591Z,1873.13
2018-09-16T09:02:31.623Z,2176.88
2018-09-16T09:03:31.658Z,1923.75
2018-09-16T09:04:31.695Z,1456.88
2018-09-16T09:05:31.728Z,1507.50
2018-09-16T09:06:31.764Z,1552.50
2018-09-16T09:07:31.800Z,1378.13
2018-09-16T09:08:31.832Z,1906.88
2018-09-16T09:09:31.871Z,1951.88
2018-09-16T09:10:31.905Z,1906.88
2018-09-16T09:11:31.940Z,1912.50
2018-09-16T09:12:31.975Z,1991.25
2018-09-16T09:13:32.010Z,1985.63
2018-09-16T09:14:32.048Z,1732.50
2018-09-16T09:15:32.090Z,1693.13
2018-09-16T09:16:32.120Z,1721.25
2018-09-16T09:17:32.176Z,1715.63
2018-09-16T09:18:32.187Z,1805.63
2018-09-16T09:19:32.224Z,1665.00
2018-09-16T09:20:32.259Z,2036.25
2018-09-16T09:21:32.300Z,2058.75
2018-09-16T09:22:32.332Z,2137.50
2018-09-16T09:23:32.368Z,2098.13
2018-09-16T09:24:32.407Z,2272.50
2018-09-16T09:25:32.441Z,2182.50
2018-09-16T09:26:32.479Z,2002.50
2018-09-16T09:27:32.515Z,1929.38
2018-09-16T09:28:32.550Z,1963.13
2018-09-16T09:29:32.590Z,1974.38
2018-09-16T09:30:32.624Z,1732.50
2018-09-16T09:31:32.662Z,1501.88
2018-09-16T09:32:32.698Z,1856.25
2018-09-16T09:33:32.735Z,1805.63
2018-09-16T09:34:32.772Z,1923.75
2018-09-16T09:35:32.839Z,1501.88
2018-09-16T09:36:32.847Z,2441.25
2018-09-16T09:37:32.884Z,2570.63
2018-09-16T09:38:32.917Z,2469.38
2018-09-16T09:39:32.955Z,2525.63
2018-09-16T09:40:32.990Z,2368.13
2018-09-16T09:41:33.030Z,2351.25
2018-09-16T09:42:33.069Z,2351.25
2018-09-16T09:43:33.103Z,2340.00
2018-09-16T09:44:33.141Z,2379.38
2018-09-16T09:45:33.178Z,2154.38
2018-09-16T09:46:33.214Z,1822.50
2018-09-16T09:47:33.252Z,1755.00
2018-09-16T09:48:33.287Z,2075.63
2018-09-16T09:49:33.324Z,2323.13
2018-09-16T09:50:33.363Z,2317.50
2018-09-16T09:51:33.402Z,2356.88
2018-09-16T09:52:33.451Z,2266.88
2018-09-16T09:53:33.603Z,2306.25
2018-09-16T09:54:33.515Z,2379.38
2018-09-16T09:55:33.549Z,2176.88
2018-09-16T09:56:33.590Z,2115.00
2018-09-16T09:57:33.625Z,2306.25
2018-09-16T09:58:33.662Z,2182.50
2018-09-16T09:59:33.705Z,2283.75
2018-09-16T10:00:33.739Z,2413.13
2018-09-16T10:01:33.777Z,2323.13
2018-09-16T10:02:33.824Z,2289.38
2018-09-16T10:03:33.861Z,2041.88
2018-09-16T10:04:33.892Z,2081.25
2018-09-16T10:05:33.932Z,2216.25
2018-09-16T10:06:33.970Z,2317.50
2018-09-16T10:07:34.008Z,2019.38
2018-09-16T10:08:34.046Z,2165.63
2018-09-16T10:09:34.085Z,1935.00
2018-09-16T10:10:34.123Z,2131.88
2018-09-16T10:11:34.163Z,2047.50
2018-09-16T10:12:34.200Z,1890.00
2018-09-16T10:13:34.236Z,1923.75
2018-09-16T10:14:34.383Z,2126.25
2018-09-16T10:15:34.316Z,2103.75
2018-09-16T10:16:34.350Z,1890.00
2018-09-16T10:17:34.391Z,2272.50
2018-09-16T10:18:34.430Z,2390.63
2018-09-16T10:19:34.468Z,2362.50
2018-09-16T10:20:34.507Z,2424.38
2018-09-16T10:21:34.544Z,2328.75
2018-09-16T10:22:34.608Z,2401.88
2018-09-16T10:23:34.620Z,2413.13
2018-09-16T10:24:34.659Z,2351.25
2018-09-16T10:25:34.695Z,2430.00
2018-09-16T10:26:34.737Z,2424.38
2018-09-16T10:27:34.774Z,2238.75
2018-09-16T10:28:34.811Z,2041.88
2018-09-16T10:29:34.849Z,1648.13
2018-09-16T10:30:34.890Z,1479.38
2018-09-16T10:31:34.924Z,1867.50
2018-09-16T10:32:34.963Z,1923.75
2018-09-16T10:33:35.004Z,1867.50
2018-09-16T10:34:35.044Z,1839.38
2018-09-16T10:35:35.078Z,1856.25
2018-09-16T10:36:35.119Z,1603.13
2018-09-16T10:37:35.159Z,1985.63
2018-09-16T10:38:35.297Z,2070.00
2018-09-16T10:39:35.241Z,1614.38
2018-09-16T10:40:35.273Z,1288.13
2018-09-16T10:41:35.311Z,1417.50
2018-09-16T10:42:35.350Z,1625.63
2018-09-16T10:43:35.385Z,2154.38
2018-09-16T10:44:35.424Z,1940.63
2018-09-16T10:45:35.465Z,1996.88
2018-09-16T10:46:35.498Z,1670.63
2018-09-16T10:47:35.536Z,1648.13
2018-09-16T10:48:35.577Z,1631.25
2018-09-16T10:49:35.616Z,1681.88
2018-09-16T10:50:35.653Z,1805.63
2018-09-16T10:51:35.689Z,1670.63
2018-09-16T10:52:35.726Z,1507.50
2018-09-16T10:53:35.766Z,1468.13
2018-09-16T10:54:35.801Z,1496.25
2018-09-16T10:55:35.841Z,1293.75
2018-09-16T10:56:35.879Z,1260.00
2018-09-16T10:57:35.915Z,1366.88
2018-09-16T10:58:35.953Z,1546.88
2018-09-16T10:59:35.990Z,1726.88
2018-09-16T11:00:36.027Z,1732.50
2018-09-16T11:01:36.068Z,1698.75
2018-09-16T11:02:36.105Z,1603.13
2018-09-16T11:03:36.139Z,1327.50
2018-09-16T11:04:36.181Z,1603.13
2018-09-16T11:05:36.218Z,1715.63
2018-09-16T11:06:36.253Z,1755.00
2018-09-16T11:07:36.293Z,1912.50
2018-09-16T11:08:36.331Z,2058.75
2018-09-16T11:09:36.367Z,1906.88
2018-09-16T11:10:36.406Z,1923.75
2018-09-16T11:11:36.439Z,1935.00
2018-09-16T11:12:36.478Z,1918.13
2018-09-16T11:13:36.517Z,1963.13
2018-09-16T11:14:36.555Z,1867.50
2018-09-16T11:15:36.593Z,1951.88
2018-09-16T11:16:36.629Z,2098.13
2018-09-16T11:17:36.668Z,2013.75
2018-09-16T11:18:36.706Z,2086.88
2018-09-16T11:19:36.744Z,2053.13
2018-09-16T11:20:36.783Z,2103.75
2018-09-16T11:21:36.818Z,1884.38
2018-09-16T11:22:36.858Z,1732.50
2018-09-16T11:23:36.896Z,1974.38
2018-09-16T11:24:36.945Z,2025.00
2018-09-16T11:25:36.970Z,2041.88
2018-09-16T11:26:37.010Z,1923.75
2018-09-16T11:27:37.045Z,1951.88
2018-09-16T11:28:37.086Z,2182.50
2018-09-16T11:29:37.125Z,2216.25
2018-09-16T11:30:37.163Z,2103.75
2018-09-16T11:31:37.204Z,1845.00
2018-09-16T11:32:37.250Z,1946.25
2018-09-16T11:33:37.278Z,2025.00
2018-09-16T11:34:37.314Z,2025.00
2018-09-16T11:35:37.418Z,1912.50
2018-09-16T11:36:37.400Z,1704.38
2018-09-16T11:37:37.430Z,1642.50
2018-09-16T11:38:37.469Z,1563.75
2018-09-16T11:39:37.507Z,1434.38
2018-09-16T11:40:37.556Z,1687.50
2018-09-16T11:41:37.584Z,1535.63
2018-09-16T11:42:37.625Z,1473.75
2018-09-16T11:43:37.662Z,1378.13
2018-09-16T11:44:37.700Z,1445.63
2018-09-16T11:45:37.737Z,1282.50
2018-09-16T11:46:37.779Z,1243.13
2018-09-16T11:47:37.816Z,1276.88
2018-09-16T11:48:37.856Z,1327.50
2018-09-16T11:49:37.891Z,1361.25
2018-09-16T11:50:37.932Z,1451.25
2018-09-16T11:51:37.984Z,1305.00
2018-09-16T11:52:38.005Z,1198.13
2018-09-16T11:53:38.044Z,1164.38
2018-09-16T11:54:38.082Z,1288.13
2018-09-16T11:55:38.120Z,1305.00
2018-09-16T11:56:38.157Z,1136.25
2018-09-16T11:57:38.199Z,1310.63
2018-09-16T11:58:38.237Z,1428.75
2018-09-16T11:59:38.275Z,1473.75
2018-09-16T12:00:38.312Z,1271.25
2018-09-16T12:01:38.349Z,1400.63
2018-09-16T12:02:38.387Z,1321.88
2018-09-16T12:03:38.424Z,1243.13
2018-09-16T12:04:38.463Z,1164.38
2018-09-16T12:05:38.497Z,1119.38
2018-09-16T12:06:38.539Z,1119.38
2018-09-16T12:07:38.579Z,1141.88
2018-09-16T12:08:38.609Z,1074.38
2018-09-16T12:09:38.647Z,1023.75
2018-09-16T12:10:38.687Z,1046.25
2018-09-16T12:11:38.724Z,1029.38
2018-09-16T12:12:38.757Z,995.63
2018-09-16T12:13:38.797Z,1046.25
2018-09-16T12:14:38.834Z,1035.00
2018-09-16T12:15:38.869Z,1029.38
2018-09-16T12:16:38.908Z,1102.50
2018-09-16T12:17:38.941Z,1091.25
2018-09-16T12:18:38.980Z,1175.63
2018-09-16T12:19:39.017Z,1276.88
2018-09-16T12:20:39.052Z,1192.50
2018-09-16T12:21:39.092Z,1186.88
2018-09-16T12:22:39.126Z,1192.50
2018-09-16T12:23:39.163Z,1237.50
2018-09-16T12:24:39.200Z,1316.25
2018-09-16T12:25:39.235Z,1338.75
2018-09-16T12:26:39.272Z,1293.75
2018-09-16T12:27:39.311Z,1282.50
2018-09-16T12:28:39.345Z,1220.63
2018-09-16T12:29:39.382Z,1091.25
2018-09-16T12:30:39.417Z,1102.50
2018-09-16T12:31:39.454Z,1119.38
2018-09-16T12:32:39.492Z,1147.50
2018-09-16T12:33:39.527Z,1102.50
2018-09-16T12:34:39.566Z,1170.00
2018-09-16T12:35:39.602Z,1080.00
2018-09-16T12:36:39.639Z,1035.00
2018-09-16T12:37:39.679Z,1113.75
2018-09-16T12:38:39.711Z,1035.00
2018-09-16T12:39:39.749Z,1130.63
2018-09-16T12:40:39.783Z,1023.75
2018-09-16T12:41:39.822Z,978.75